Data for 06/08/2017

Time Sea-Level Adjusted Pressure Absolute Pressure Temperature Relative Humidity Dew Point   
(mb) (inHg) (mb) (inHg) (C) (F) (%) (C) (F)
00:05 1020 30.12 849 25.07 19.1 66.5 50 8.5 47.4
00:10 1020 30.12 849 25.07 18.9 66 50 8.3 47
00:15 1020 30.12 849 25.07 18.8 65.8 51 8.6 47.6
00:20 1019 30.09 849 25.07 18.7 65.6 52 8.8 47.8
00:25 1019 30.09 849 25.07 18.4 65.1 54 8.9 48
00:30 1019 30.09 848 25.04 18.2 64.8 54 8.7 47.7
00:35 1019 30.09 848 25.04 18.1 64.7 55 9 48.3
00:40 1019 30.09 848 25.04 17.9 64.2 56 9.2 48.5
00:45 1019 30.09 849 25.07 17.9 64.3 57 9.5 49.1
00:50 1019 30.09 848 25.04 17.6 63.7 60 9.8 49.6
00:55 1018 30.06 848 25.04 17.5 63.6 60 9.7 49.4
01:00 1018 30.06 847 25.01 17.3 63.1 62 10 50.1
01:05 1018 30.06 847 25.01 17.1 62.8 62 9.7 49.5
01:10 1018 30.06 847 25.01 17.1 62.8 59 9.2 48.6
01:15 1018 30.06 847 25.01 17.1 62.8 59 9.2 48.6
01:20 1018 30.06 847 25.01 17.2 63 56 8.4 47.2
01:25 1018 30.06 847 25.01 17.7 63.8 55 8.6 47.4
01:30 1018 30.06 847 25.01 17.6 63.8 56 8.9 48.1
01:35 1018 30.06 847 25.01 17.4 63.4 57 9 48.2
01:40 1017 30.03 847 25.01 17.6 63.7 53 8.1 46.5
01:45 1017 30.03 847 25.01 17.7 63.9 52 7.7 45.9
01:50 1017 30.03 847 25.01 18.1 64.6 48 7 44.5
01:55 1017 30.03 847 25.01 18.6 65.5 46 7 44.6
02:00 1017 30.03 847 25.01 18.7 65.6 47 7.4 45.3
02:05 1017 30.03 847 25.01 18.5 65.3 50 7.9 46.2
02:10 1017 30.03 847 25.01 18.2 64.8 49 7.6 45.6
02:15 1017 30.03 847 25.01 18.2 64.8 50 7.7 45.9
02:20 1017 30.03 847 25.01 18.1 64.5 52 8.1 46.5
02:25 1017 30.03 846 24.98 18 64.4 51 7.9 46.2
02:30 1017 30.03 846 24.98 18.1 64.6 51 8 46.3
02:35 1017 30.03 846 24.98 18.1 64.6 51 7.9 46.2
02:40 1017 30.03 846 24.98 18.2 64.7 50 7.8 46
02:45 1017 30.03 846 24.98 18.2 64.8 50 7.7 45.9
02:50 1017 30.03 846 24.98 18.2 64.7 50 7.8 46
02:55 1017 30.03 846 24.98 18.1 64.7 50 7.7 45.9
03:00 1017 30.03 846 24.98 18.1 64.6 50 7.7 45.9
03:05 1017 30.03 846 24.98 18 64.3 51 7.7 45.9
03:10 1016 30 846 24.98 17.9 64.3 50 7.5 45.5
03:15 1016 30 846 24.98 17.9 64.3 50 7.4 45.3
03:20 1016 30 846 24.98 18 64.3 49 7.3 45.1
03:25 1016 30 846 24.98 17.9 64.2 49 7.1 44.8
03:30 1016 30 846 24.98 18 64.3 48 6.9 44.5
03:35 1016 30 846 24.98 18 64.4 48 6.9 44.4
03:40 1016 30 846 24.98 17.9 64.1 48 6.9 44.4
03:45 1016 30 845 24.95 17.8 64.1 48 6.8 44.2
03:50 1016 30 845 24.95 17.8 64.1 48 6.8 44.2
03:55 1016 30 845 24.95 17.7 63.9 49 6.9 44.5
04:00 1016 30 845 24.95 17.6 63.6 49 6.8 44.3
04:05 1016 30 845 24.95 17.5 63.6 49 6.8 44.3
04:10 1016 30 845 24.95 17.5 63.5 49 6.8 44.3
04:15 1016 30 845 24.95 17.5 63.4 49 6.7 44.1
04:20 1016 30 845 24.95 17.4 63.4 49 6.8 44.3
04:25 1016 30 845 24.95 17.3 63.2 49 6.7 44.1
04:30 1016 30 845 24.95 17.3 63.2 49 6.7 44
04:35 1016 30 845 24.95 17.4 63.2 49 6.6 44
04:40 1016 30 845 24.95 17.3 63.1 49 6.6 43.9
04:45 1016 30 845 24.95 17.2 63 49 6.6 43.9
04:50 1016 30 845 24.95 17.2 62.9 50 6.6 43.9
04:55 1016 30 845 24.95 17.1 62.7 49 6.4 43.5
05:00 1015 29.97 845 24.95 17.1 62.8 49 6.4 43.5
05:05 1015 29.97 845 24.95 17.1 62.8 48 6.3 43.3
05:10 1015 29.97 845 24.95 17.1 62.8 48 6.2 43.2
05:15 1015 29.97 845 24.95 17.2 62.9 48 6.1 43
05:20 1015 29.97 845 24.95 17.2 62.9 48 6 42.9
05:25 1015 29.97 845 24.95 17.3 63.1 47 5.9 42.7
05:30 1015 29.97 845 24.95 17.4 63.3 46 5.9 42.5
05:35 1016 30 845 24.95 17.4 63.3 46 5.9 42.6
05:40 1016 30 845 24.95 17.4 63.3 46 5.9 42.6
05:45 1015 29.97 845 24.95 17.5 63.4 46 5.7 42.3
05:50 1015 29.97 845 24.95 17.4 63.3 47 6.1 42.9
05:55 1015 29.97 845 24.95 17.1 62.9 47 5.9 42.6
06:00 1015 29.97 845 24.95 17 62.6 50 6.7 44.1
06:05 1015 29.97 845 24.95 16.4 61.6 51 6.3 43.3
06:10 1015 29.97 844 24.92 16.4 61.5 53 7 44.5
06:15 1015 29.97 844 24.92 15.6 60.1 54 6.5 43.7
06:20 1015 29.97 844 24.92 15.5 59.9 54 6.4 43.5
06:25 1015 29.97 844 24.92 15.7 60.2 53 6.3 43.4
06:30 1015 29.97 844 24.92 16.2 61.1 52 6.4 43.5
06:35 1015 29.97 844 24.92 16.6 61.9 50 6.4 43.4
06:40 1015 29.97 844 24.92 16.5 61.7 52 6.8 44.2
06:45 1015 29.97 844 24.92 16.6 61.8 50 6.3 43.4
06:50 1015 29.97 844 24.92 16.8 62.2 50 6.4 43.5
06:55 1015 29.97 844 24.92 17 62.6 51 6.9 44.4
07:00 1015 29.97 844 24.92 16.9 62.5 50 6.6 43.9
07:05 1015 29.97 844 24.92 17 62.6 49 6.4 43.5
07:10 1015 29.97 844 24.92 17.5 63.5 48 6.4 43.5
07:15 1015 29.97 844 24.92 17.9 64.2 47 6.5 43.6
07:20 1015 29.97 844 24.92 18.1 64.5 47 6.7 44.1
07:25 1015 29.97 844 24.92 18 64.5 48 6.9 44.4
07:30 1015 29.97 844 24.92 18.1 64.5 50 7.5 45.5
07:35 1015 29.97 844 24.92 18.1 64.7 51 8 46.5
07:40 1015 29.97 844 24.92 18.4 65.1 50 7.9 46.3
07:45 1015 29.97 844 24.92 18.9 66 47 7.6 45.7
07:50 1015 29.97 844 24.92 19.2 66.5 48 8 46.5
07:55 1015 29.97 844 24.92 19 66.2 50 8.5 47.2
08:00 1015 29.97 844 24.92 19.2 66.6 49 8.3 46.9
08:05 1015 29.97 844 24.92 19.8 67.6 47 8.3 47
08:10 1015 29.97 844 24.92 19.9 67.8 46 8.2 46.7
08:15 1014 29.94 844 24.92 20.1 68.2 47 8.5 47.2
08:20 1014 29.94 844 24.92 19.2 66.6 51 9 48.2
08:25 1014 29.94 843 24.89 18.8 65.8 51 8.5 47.2
08:30 1014 29.94 844 24.92 18.8 65.8 51 8.7 47.6
08:35 1015 29.97 844 24.92 19.3 66.8 48 8 46.5
08:40 1014 29.94 844 24.92 20.2 68.3 46 8.3 46.9
08:45 1014 29.94 844 24.92 20.4 68.8 48 9.2 48.6
08:50 1014 29.94 844 24.92 20.3 68.6 47 8.8 47.9
08:55 1014 29.94 844 24.92 19.8 67.7 51 9.6 49.3
09:00 1014 29.94 843 24.89 19.7 67.5 50 9.3 48.7
09:05 1014 29.94 843 24.89 19.3 66.8 52 9.3 48.7
09:10 1014 29.94 843 24.89 19.2 66.6 52 9.2 48.6
09:15 1014 29.94 843 24.89 19.4 67 52 9.4 48.8
09:20 1014 29.94 843 24.89 20.1 68.2 48 8.8 47.8
09:25 1014 29.94 843 24.89 20 67.9 50 9.5 49
09:30 1014 29.94 843 24.89 20.6 69 46 8.8 47.8
09:35 1014 29.94 843 24.89 21.5 70.7 43 8.7 47.7
09:40 1014 29.94 843 24.89 21.7 71.1 44 9 48.2
09:45 1014 29.94 843 24.89 22.2 72 42 9 48.1
09:50 1014 29.94 843 24.89 22.6 72.6 40 8.5 47.2
09:55 1014 29.94 843 24.89 22.8 73.1 40 8.8 47.9
10:00 1013 29.91 843 24.89 23.2 73.8 39 8.8 47.9
10:05 1013 29.91 843 24.89 23.6 74.5 38 8.9 48
10:10 1013 29.91 842 24.86 23.5 74.2 41 9.7 49.4
10:15 1013 29.91 842 24.86 23.7 74.7 39 9 48.2
10:20 1013 29.91 842 24.86 23.9 75 40 9.5 49.1
10:25 1013 29.91 842 24.86 23.7 74.6 40 9.4 49
10:30 1013 29.91 842 24.86 24.4 75.9 37 8.8 47.9
10:35 1013 29.91 842 24.86 24.7 76.5 37 9.4 48.9
10:40 1013 29.91 842 24.86 24.2 75.6 39 9.4 48.9
10:45 1013 29.91 842 24.86 24.6 76.3 37 9.3 48.8
10:50 1013 29.91 842 24.86 24 75.2 39 9.4 48.9
10:55 1013 29.91 842 24.86 24.4 75.8 38 9.5 49.1
11:00 1013 29.91 842 24.86 24.5 76.2 40 10.4 50.7
11:05 1013 29.91 842 24.86 23.5 74.4 41 9.6 49.2
11:10 1013 29.91 842 24.86 24.2 75.6 39 9.4 49
11:15 1013 29.91 842 24.86 24.1 75.3 40 9.7 49.5
11:20 1013 29.91 842 24.86 25 77 36 9.2 48.6
11:25 1013 29.91 842 24.86 25.5 77.9 38 10.4 50.7
11:30 1012 29.88 842 24.86 25.3 77.6 38 10.1 50.3
11:35 1012 29.88 842 24.86 25.6 78 36 9.8 49.7
11:40 1012 29.88 842 24.86 25.8 78.5 36 9.9 49.8
11:45 1012 29.88 841 24.83 26.2 79.1 35 9.6 49.2
11:50 1012 29.88 841 24.83 26.8 80.3 32 9.1 48.4
11:55 1012 29.88 841 24.83 27 80.6 33 9.8 49.6
12:00 1012 29.88 841 24.83 27 80.5 31 8.9 47.9
12:05 1012 29.88 841 24.83 27.3 81.2 31 9.1 48.4
12:10 1012 29.88 841 24.83 28 82.3 29 8.8 47.9
12:15 1012 29.88 841 24.83 28.2 82.7 30 9.3 48.8
12:20 1012 29.88 841 24.83 27.7 81.9 31 9.3 48.7
12:25 1012 29.88 841 24.83 27.5 81.4 30 8.9 48
12:30 1012 29.88 841 24.83 27.8 82 29 8.2 46.7
12:35 1012 29.88 841 24.83 27.8 82.1 29 8.6 47.6
12:40 1012 29.88 841 24.83 28.4 83 28 8.2 46.8
12:45 1012 29.88 841 24.83 29 84.2 27 8.5 47.2
12:50 1012 29.88 841 24.83 29.2 84.6 26 8.1 46.5
12:55 1012 29.88 841 24.83 29.8 85.6 26 8.7 47.7
13:00 1012 29.88 841 24.83 29.6 85.4 26 8.4 47.1
13:05 1012 29.88 841 24.83 29.6 85.3 24 7.4 45.3
13:10 1011 29.85 841 24.83 29.4 84.8 25 7.7 45.8
13:15 1011 29.85 841 24.83 29.5 85.1 22 5.9 42.6
13:20 1011 29.85 841 24.83 29.4 85 23 6.2 43.2
13:25 1011 29.85 841 24.83 30.3 86.5 23 6.9 44.4
13:30 1011 29.85 841 24.83 30 86 23 7 44.6
13:35 1011 29.85 841 24.83 30.2 86.4 24 8 46.3
13:40 1011 29.85 840 24.81 29.9 85.8 25 8.3 46.9
13:45 1011 29.85 840 24.81 29.6 85.2 25 8 46.5
13:50 1011 29.85 840 24.81 29.5 85 26 8.2 46.8
13:55 1011 29.85 840 24.81 29.7 85.4 20 4.6 40.4
14:00 1011 29.85 840 24.81 29.6 85.3 27 8.7 47.7
14:05 1011 29.85 840 24.81 28.8 83.9 27 8.3 46.9
14:10 1011 29.85 840 24.81 29.3 84.7 18 3.1 37.5
14:15 1011 29.85 840 24.81 29.1 84.3 26 7.6 45.8
14:20 1011 29.85 840 24.81 29.2 84.5 22 5.9 42.7
14:25 1011 29.85 840 24.81 28.7 83.7 26 7.6 45.6
14:30 1011 29.85 840 24.81 28.8 83.9 27 8.3 46.9
14:35 1011 29.85 840 24.81 29.2 84.6 13 -1.9 28.6
14:40 1011 29.85 840 24.81 29.2 84.6 12 -3 26.6
14:45 1011 29.85 840 24.81 29.2 84.5 10 -4.9 23.3
14:50 1011 29.85 840 24.81 29 84.1 11 -4.6 23.7
14:55 1011 29.85 840 24.81 28.8 83.9 12 -3.6 25.6
15:00 1011 29.85 840 24.81 28.8 83.8 11 -4.2 24.4
15:05 1011 29.85 840 24.81 28.9 84 12 -3 26.5
15:10 1011 29.85 840 24.81 29 84.1 12 -3.5 25.8
15:15 1011 29.85 840 24.81 28.9 84 13 -2.2 28
15:20 1011 29.85 840 24.81 28.7 83.7 14 -1.2 29.8
15:25 1011 29.85 840 24.81 28.5 83.2 13 -2.3 27.9
15:30 1011 29.85 840 24.81 28.5 83.3 11 -4 24.7
15:35 1011 29.85 840 24.81 28.7 83.6 12 -3 26.7
15:40 1011 29.85 840 24.81 28.8 83.8 11 -4.5 24
15:45 1011 29.85 840 24.81 28.8 83.9 11 -4.3 24.2
15:50 1011 29.85 840 24.81 28.7 83.7 12 -3.6 25.4
15:55 1011 29.85 840 24.81 28.9 84.1 12 -3.4 25.9
16:00 1010 29.83 840 24.81 28.9 84 11 -3.7 25.3
16:05 1010 29.83 840 24.81 28.7 83.6 13 -2.7 27.2
16:10 1010 29.83 840 24.81 28.8 83.8 13 -2.5 27.4
16:15 1010 29.83 839 24.78 29 84.3 12 -2.5 27.4
16:20 1010 29.83 839 24.78 28.7 83.6 13 -2.4 27.7
16:25 1010 29.83 839 24.78 28.7 83.6 12 -3.3 26.1
16:30 1010 29.83 839 24.78 28.8 83.9 13 -2.3 27.9
16:35 1010 29.83 839 24.78 28.8 83.8 14 -0.8 30.6
16:40 1010 29.83 839 24.78 28.8 83.8 14 -1.2 29.8
16:45 1010 29.83 839 24.78 28.8 83.8 13 -2.5 27.5
16:50 1009 29.8 839 24.78 29 84.1 13 -2 28.3
16:55 1009 29.8 839 24.78 28.9 83.9 13 -1.9 28.6
17:00 1009 29.8 838 24.75 28.8 83.8 13 -1.6 29.1
17:05 1009 29.8 838 24.75 28.8 83.8 12 -2.8 26.9
17:10 1009 29.8 838 24.75 28.9 84 13 -2 28.4
17:15 1009 29.8 838 24.75 29.1 84.3 13 -1.5 29.3
17:20 1009 29.8 838 24.75 29.1 84.4 12 -3.4 26
17:25 1009 29.8 838 24.75 29.4 84.9 14 -0.8 30.6
17:30 1009 29.8 838 24.75 29.9 85.8 12 -2 28.4
17:35 1009 29.8 838 24.75 29.8 85.7 13 -1.4 29.6
17:40 1009 29.8 838 24.75 29.9 85.7 13 -1.3 29.7
17:45 1009 29.8 838 24.75 30.1 86.1 12 -2.4 27.6
17:50 1009 29.8 838 24.75 30 85.9 12 -2 28.4
17:55 1009 29.8 838 24.75 29.7 85.4 12 -2 28.4
18:00 1008 29.77 838 24.75 29.3 84.8 13 -1.3 29.6
18:05 1008 29.77 838 24.75 29.2 84.5 13 -1.7 28.9
18:10 1008 29.77 838 24.75 29.4 84.9 12 -2.6 27.4
18:15 1008 29.77 838 24.75 29.7 85.5 11 -3.1 26.3
18:20 1008 29.77 838 24.75 29.6 85.4 11 -3.3 26.1
18:25 1008 29.77 838 24.75 29.7 85.4 12 -2.3 27.8
18:30 1008 29.77 837 24.72 29.4 85 12 -3.2 26.3
18:35 1008 29.77 837 24.72 29.5 85 12 -2.6 27.3
18:40 1008 29.77 837 24.72 29.7 85.4 12 -2.2 28
18:45 1008 29.77 837 24.72 29.6 85.3 12 -2.5 27.6
18:50 1008 29.77 837 24.72 29.4 84.9 11 -3.4 25.8
18:55 1008 29.77 838 24.75 29.1 84.4 12 -2.8 27
19:00 1008 29.77 838 24.75 29.1 84.3 12 -3.1 26.4
19:05 1008 29.77 838 24.75 29.5 85.1 12 -2.2 28
19:10 1008 29.77 838 24.75 29.3 84.8 12 -2.3 27.9
19:15 1009 29.8 838 24.75 28.7 83.7 13 -2.3 27.9
19:20 1009 29.8 838 24.75 28.3 82.9 12 -3 26.5
19:25 1009 29.8 838 24.75 28 82.4 12 -3.6 25.6
19:30 1009 29.8 838 24.75 28.2 82.7 12 -3.7 25.4
19:35 1009 29.8 838 24.75 28.4 83.1 12 -3.4 25.9
19:40 1009 29.8 838 24.75 28.3 82.9 11 -4.4 24.1
19:45 1009 29.8 838 24.75 28.3 82.9 12 -3.2 26.2
19:50 1009 29.8 838 24.75 28.1 82.6 12 -3.3 26.1
19:55 1009 29.8 838 24.75 27.9 82.2 13 -3.3 26.1
20:00 1009 29.8 838 24.75 27.9 82.1 12 -3.4 25.9
20:05 1009 29.8 838 24.75 27.7 81.8 13 -2.9 26.7
20:10 1009 29.8 838 24.75 27.4 81.3 13 -3.3 26.1
20:15 1009 29.8 838 24.75 27.3 81.2 12 -3.8 25.1
20:20 1009 29.8 838 24.75 27.2 81 13 -2.8 27
20:25 1009 29.8 838 24.75 26.9 80.5 14 -2.9 26.8
20:30 1009 29.8 838 24.75 26.6 79.9 14 -2.4 27.7
20:35 1009 29.8 838 24.75 26.3 79.3 15 -2.3 27.8
20:40 1009 29.8 838 24.75 26.1 79 15 -2.2 28
20:45 1009 29.8 838 24.75 26 78.7 15 -2.8 27
20:50 1009 29.8 838 24.75 25.9 78.7 15 -2.4 27.7
20:55 1009 29.8 838 24.75 25.7 78.2 16 -2.2 28.1
21:00 1009 29.8 838 24.75 25.3 77.5 17 -1.4 29.5
21:05 1009 29.8 838 24.75 25 77 16 -2.7 27.1
21:10 1009 29.8 838 24.75 24.9 76.8 15 -3 26.6
21:15 1009 29.8 838 24.75 25.1 77.2 14 -3.7 25.4
21:20 1009 29.8 838 24.75 25.2 77.3 14 -3.6 25.5
21:25 1009 29.8 838 24.75 25.1 77.1 14 -3.7 25.4
21:30 1009 29.8 838 24.75 24.8 76.7 15 -3.7 25.3
21:35 1009 29.8 838 24.75 24.8 76.7 15 -3.8 25.2
21:40 1009 29.8 838 24.75 24.7 76.5 15 -3.6 25.6
21:45 1009 29.8 838 24.75 24.4 75.9 16 -2.7 27.2
21:50 1009 29.8 838 24.75 23.9 74.9 17 -2.2 28.1
21:55 1010 29.83 839 24.78 23.6 74.4 20 -0.2 31.6
22:00 1010 29.83 839 24.78 22.4 72.4 30 4.3 39.7
22:05 1010 29.83 839 24.78 21.7 71 33 5.1 41.2
22:10 1010 29.83 839 24.78 21.2 70.1 36 5.9 42.5
22:15 1010 29.83 839 24.78 20.9 69.6 38 6.3 43.3
22:20 1010 29.83 839 24.78 20.7 69.2 39 6.4 43.6
22:25 1010 29.83 839 24.78 20.5 69 40 6.7 44.1
22:30 1010 29.83 840 24.81 20.4 68.7 41 6.9 44.4
22:35 1010 29.83 840 24.81 20.3 68.5 42 7.1 44.7
22:40 1010 29.83 840 24.81 20 67.9 43 7.3 45.1
22:45 1010 29.83 840 24.81 19.4 67 46 7.8 46
22:50 1010 29.83 840 24.81 19.1 66.5 47 7.7 45.8
22:55 1010 29.83 840 24.81 19.1 66.3 46 7.5 45.4
23:00 1011 29.85 840 24.81 19.2 66.6 46 7.3 45.2
23:05 1011 29.85 840 24.81 19.2 66.6 46 7.3 45.1
23:10 1011 29.85 840 24.81 19.2 66.6 46 7.3 45.1
23:15 1011 29.85 840 24.81 19.2 66.6 46 7.5 45.6
23:20 1011 29.85 840 24.81 19 66.3 47 7.5 45.6
23:25 1011 29.85 840 24.81 18.9 66 47 7.5 45.6
23:30 1011 29.85 840 24.81 18.9 66 45 6.9 44.5
23:35 1011 29.85 840 24.81 19.2 66.6 44 6.8 44.2
23:40 1011 29.85 840 24.81 19.4 66.9 43 6.8 44.2
23:45 1011 29.85 840 24.81 19.4 67 44 6.9 44.4
23:50 1011 29.85 840 24.81 19.3 66.8 45 7.2 44.9
23:55 1011 29.85 840 24.81 19 66.2 46 7.1 44.8
24:00 1011 29.85 840 24.81 18.8 65.8 46 7 44.6